Time;durP1;ratioP1;P1;durP2;ratioP2;P2;SDS_P1;SDS_P2;PMS_P1;PMS_P2;Temp;Humidity;BMP_temperature;BMP_pressure;BME280_temperature;BME280_humidity;BME280_pressure;Samples;Min_cycle;Max_cycle;Signal;HPM_P1;HPM_P2
2021/07/04 00:00:49;;;;;;;14.18;3.15;;;18.80;95.00;;;;;;5047864;28;20060;-79
2021/07/04 00:03:15;;;;;;;4.90;2.80;;;18.80;94.90;;;;;;5033284;28;20024;-81
2021/07/04 00:05:44;;;;;;;5.68;3.00;;;18.70;94.90;;;;;;5033095;28;20036;-81
2021/07/04 00:08:12;;;;;;;6.18;2.63;;;18.60;94.90;;;;;;5050940;28;20079;-81
2021/07/04 00:10:51;;;;;;;4.53;2.22;;;18.60;94.90;;;;;;5049512;28;20032;-79
2021/07/04 00:13:18;;;;;;;7.85;3.25;;;18.40;95.00;;;;;;5050742;28;20029;-79
2021/07/04 00:15:44;;;;;;;3.80;2.30;;;18.30;95.20;;;;;;5032940;28;20125;-79
2021/07/04 00:18:16;;;;;;;4.85;1.75;;;18.30;95.40;;;;;;5032495;28;20515;-80
2021/07/04 00:20:42;;;;;;;8.60;2.38;;;18.30;95.50;;;;;;5050758;28;20029;-79
2021/07/04 00:23:08;;;;;;;4.70;2.20;;;18.30;95.60;;;;;;5050555;28;20102;-79
2021/07/04 00:25:35;;;;;;;3.05;1.60;;;18.40;95.60;;;;;;5051106;28;20063;-80
2021/07/04 00:28:01;;;;;;;4.20;1.42;;;18.50;95.70;;;;;;5050499;28;20458;-80
2021/07/04 00:30:27;;;;;;;4.18;1.73;;;18.50;95.60;;;;;;5049126;28;20107;-79
2021/07/04 00:32:53;;;;;;;5.20;1.60;;;18.50;95.50;;;;;;5032767;28;20113;-81
2021/07/04 00:35:21;;;;;;;5.13;1.25;;;18.50;95.50;;;;;;5032864;28;20554;-78
2021/07/04 00:37:48;;;;;;;1.77;1.30;;;18.50;95.40;;;;;;5048912;28;20041;-82
2021/07/04 00:40:15;;;;;;;2.83;1.35;;;18.50;95.30;;;;;;5032514;28;20106;-80
2021/07/04 00:42:41;;;;;;;3.90;2.10;;;18.40;95.40;;;;;;5032496;28;20391;-80
2021/07/04 00:45:26;;;;;;;3.78;1.67;;;18.40;95.50;;;;;;5048790;28;20094;-77
2021/07/04 00:47:53;;;;;;;2.55;1.83;;;18.30;95.60;;;;;;5048976;28;20049;-80
2021/07/04 00:50:21;;;;;;;2.78;1.70;;;18.30;95.60;;;;;;5048932;28;20441;-78
2021/07/04 00:52:47;;;;;;;3.03;1.63;;;18.20;95.60;;;;;;5048936;28;20128;-81
2021/07/04 00:55:15;;;;;;;6.35;2.10;;;18.20;95.70;;;;;;5048543;28;20075;-78
2021/07/04 00:57:43;;;;;;;3.00;2.03;;;18.10;95.80;;;;;;5048698;28;20032;-79
2021/07/04 01:00:11;;;;;;;2.10;1.45;;;18.10;95.90;;;;;;5048779;28;20491;-80
2021/07/04 01:02:37;;;;;;;3.83;2.17;;;18.10;95.90;;;;;;5049230;28;20068;-80
2021/07/04 01:05:24;;;;;;;5.72;2.60;;;18.20;95.90;;;;;;5048438;28;20082;-81
2021/07/04 01:07:51;;;;;;;3.63;2.17;;;18.10;96.00;;;;;;5048504;28;20361;-79
2021/07/04 01:10:23;;;;;;;4.10;2.38;;;18.20;95.90;;;;;;5048596;28;20216;-81
2021/07/04 01:12:51;;;;;;;3.65;2.50;;;18.20;95.90;;;;;;5048040;28;20028;-80
2021/07/04 01:15:18;;;;;;;4.03;2.55;;;18.20;95.90;;;;;;5049429;28;20098;-80
2021/07/04 01:17:45;;;;;;;8.57;4.43;;;18.20;95.80;;;;;;5049379;28;20040;-81
2021/07/04 01:20:14;;;;;;;5.35;3.13;;;18.20;95.80;;;;;;5048344;28;20033;-80
2021/07/04 01:22:40;;;;;;;4.57;3.10;;;18.30;95.80;;;;;;5048245;28;20495;-78
2021/07/04 01:25:11;;;;;;;4.03;2.97;;;18.30;95.70;;;;;;5048366;28;20116;-79
2021/07/04 01:27:37;;;;;;;4.60;3.20;;;18.30;95.70;;;;;;5048221;28;20021;-80
2021/07/04 01:30:09;;;;;;;8.65;3.60;;;18.30;95.70;;;;;;5049389;28;20454;-78
2021/07/04 01:32:35;;;;;;;4.75;3.10;;;18.30;95.70;;;;;;5031452;28;20119;-79
2021/07/04 01:35:01;;;;;;;6.40;3.40;;;18.30;95.60;;;;;;5031348;28;20397;-78
2021/07/04 01:37:27;;;;;;;4.05;3.10;;;18.30;95.60;;;;;;5047748;28;20115;-79
2021/07/04 01:39:52;;;;;;;9.90;3.80;;;18.30;95.50;;;;;;5048060;28;20502;-78
2021/07/04 01:42:18;;;;;;;7.50;3.63;;;18.30;95.50;;;;;;5031243;28;20052;-81
2021/07/04 01:44:43;;;;;;;5.43;3.45;;;18.30;95.40;;;;;;5031352;28;20082;-78
2021/07/04 01:47:09;;;;;;;5.72;3.78;;;18.30;95.30;;;;;;5014433;28;20380;-79
2021/07/04 01:49:35;;;;;;;8.05;3.63;;;18.40;95.30;;;;;;5049267;28;20025;-79
2021/07/04 01:52:01;;;;;;;5.65;3.60;;;18.40;95.20;;;;;;5048956;28;20321;-80
2021/07/04 01:54:27;;;;;;;7.43;3.60;;;18.40;95.10;;;;;;5047683;28;20033;-78
2021/07/04 01:56:52;;;;;;;5.65;3.67;;;18.40;95.00;;;;;;5048945;28;20060;-78
2021/07/04 01:59:18;;;;;;;6.18;3.58;;;18.50;95.00;;;;;;5047702;28;20116;-77
2021/07/04 02:01:44;;;;;;;5.22;3.30;;;18.50;94.90;;;;;;5047436;28;20029;-80
2021/07/04 02:04:09;;;;;;;8.70;3.85;;;18.40;94.90;;;;;;5047592;28;20108;-79
2021/07/04 02:06:35;;;;;;;7.60;3.63;;;18.40;95.10;;;;;;5014482;28;20048;-79
2021/07/04 02:09:01;;;;;;;6.72;3.58;;;18.40;95.00;;;;;;5030779;28;20071;-76
2021/07/04 02:11:27;;;;;;;4.85;3.80;;;18.40;95.00;;;;;;5047521;28;20039;-79
2021/07/04 02:13:52;;;;;;;5.13;3.38;;;18.40;94.90;;;;;;5031010;28;20033;-78
2021/07/04 02:16:18;;;;;;;7.50;3.28;;;18.40;94.80;;;;;;5047439;28;20029;-78
2021/07/04 02:18:44;;;;;;;9.05;4.18;;;18.40;94.80;;;;;;5030359;28;20049;-80
2021/07/04 02:21:10;;;;;;;7.30;3.75;;;18.40;94.80;;;;;;5048466;28;20049;-76
2021/07/04 02:23:36;;;;;;;7.93;3.90;;;18.40;94.70;;;;;;5046494;28;20053;-79
2021/07/04 02:26:03;;;;;;;9.57;4.13;;;18.40;94.60;;;;;;5047143;28;20025;-79
2021/07/04 02:28:30;;;;;;;7.50;4.38;;;18.40;94.50;;;;;;5046916;28;20029;-79
2021/07/04 02:30:58;;;;;;;5.63;4.25;;;18.30;94.50;;;;;;5046997;28;20495;-81
2021/07/04 02:33:25;;;;;;;7.47;4.25;;;18.30;94.50;;;;;;5030301;28;20087;-80
2021/07/04 02:35:54;;;;;;;8.10;4.32;;;18.30;94.50;;;;;;5046877;28;20434;-80
2021/07/04 02:38:20;;;;;;;6.00;4.20;;;18.30;94.50;;;;;;5048119;28;20488;-81
2021/07/04 02:40:48;;;;;;;8.13;4.28;;;18.30;94.40;;;;;;5030428;28;20037;-78
2021/07/04 02:43:16;;;;;;;12.73;4.32;;;18.40;94.40;;;;;;5030165;28;20083;-79
2021/07/04 02:45:43;;;;;;;8.07;4.53;;;18.40;94.40;;;;;;5046549;28;20031;-79
2021/07/04 02:48:10;;;;;;;5.57;3.88;;;18.30;94.40;;;;;;5046873;28;20120;-80
2021/07/04 02:50:37;;;;;;;8.40;4.97;;;18.30;94.40;;;;;;5046700;28;20080;-81
2021/07/04 02:53:03;;;;;;;8.93;4.75;;;18.30;94.40;;;;;;5013842;28;20029;-77
2021/07/04 02:55:29;;;;;;;9.93;4.82;;;18.30;94.50;;;;;;5046524;28;20032;-79
2021/07/04 02:57:55;;;;;;;8.27;4.70;;;18.30;94.50;;;;;;5046475;28;20029;-79
2021/07/04 03:00:23;;;;;;;7.93;4.40;;;18.40;94.50;;;;;;5046735;28;20063;-77
2021/07/04 03:02:50;;;;;;;10.30;4.15;;;18.30;94.60;;;;;;5046503;28;20066;-81
2021/07/04 03:05:16;;;;;;;8.77;4.22;;;18.40;94.60;;;;;;5046311;28;20601;-80
2021/07/04 03:07:43;;;;;;;13.98;4.75;;;18.40;94.50;;;;;;5047778;28;20410;-80
2021/07/04 03:10:12;;;;;;;9.18;4.53;;;18.50;94.50;;;;;;5029902;28;20428;-81
2021/07/04 03:12:38;;;;;;;9.13;4.53;;;18.50;94.40;;;;;;5046729;28;20021;-81
2021/07/04 03:15:05;;;;;;;10.20;3.88;;;18.60;94.30;;;;;;5046431;28;20032;-78
2021/07/04 03:17:31;;;;;;;10.32;4.85;;;18.70;94.30;;;;;;5046014;28;20134;-82
2021/07/04 03:19:57;;;;;;;8.48;4.28;;;18.70;94.20;;;;;;5046346;28;20075;-80
2021/07/04 03:22:22;;;;;;;11.43;4.30;;;18.70;94.40;;;;;;5030081;28;20062;-79
2021/07/04 03:24:48;;;;;;;8.10;4.20;;;18.70;94.10;;;;;;5046281;28;20061;-80
2021/07/04 03:27:15;;;;;;;7.10;4.72;;;18.80;94.20;;;;;;5047473;28;20024;-79
2021/07/04 03:29:40;;;;;;;12.25;4.30;;;18.80;94.10;;;;;;5029822;28;20380;-80
2021/07/04 03:32:06;;;;;;;9.35;4.05;;;18.80;94.10;;;;;;5047681;28;20191;-78
2021/07/04 03:34:32;;;;;;;8.23;4.28;;;18.80;94.10;;;;;;5047968;28;20040;-78
2021/07/04 03:36:58;;;;;;;7.25;4.20;;;18.80;94.00;;;;;;5050345;28;20037;-79
2021/07/04 03:39:24;;;;;;;6.15;3.90;;;18.80;94.00;;;;;;5033868;28;20025;-77
2021/07/04 03:41:50;;;;;;;9.68;3.60;;;18.70;93.90;;;;;;5050126;28;20430;-78
2021/07/04 03:44:15;;;;;;;7.90;3.70;;;18.80;93.80;;;;;;5034071;28;20032;-82
2021/07/04 03:46:41;;;;;;;8.27;3.13;;;18.80;93.70;;;;;;5051322;28;20025;-79
2021/07/04 03:49:07;;;;;;;8.50;3.95;;;18.80;93.60;;;;;;5050150;28;20032;-79
2021/07/04 03:51:33;;;;;;;7.18;2.70;;;18.70;93.50;;;;;;5050034;28;20025;-77
2021/07/04 03:53:59;;;;;;;5.97;3.60;;;18.70;93.40;;;;;;5050254;28;20082;-79
2021/07/04 03:56:24;;;;;;;6.43;2.90;;;18.70;93.50;;;;;;5049673;28;20071;-80
2021/07/04 03:58:50;;;;;;;5.03;2.92;;;18.80;93.50;;;;;;5033372;28;20047;-80
2021/07/04 04:01:19;;;;;;;4.35;2.67;;;18.70;93.50;;;;;;5016905;28;20387;-80
2021/07/04 04:03:47;;;;;;;5.28;2.95;;;18.70;93.60;;;;;;5050041;28;20029;-78
2021/07/04 04:06:13;;;;;;;6.55;2.42;;;18.70;93.70;;;;;;5049960;28;20025;-78
2021/07/04 04:08:40;;;;;;;3.50;2.08;;;18.70;93.70;;;;;;5033479;28;20037;-79
2021/07/04 04:11:06;;;;;;;5.00;2.42;;;18.70;93.80;;;;;;5033268;28;20029;-77
2021/07/04 04:13:32;;;;;;;4.20;2.10;;;18.70;93.90;;;;;;5049921;28;20029;-79
2021/07/04 04:15:57;;;;;;;6.28;3.08;;;18.80;94.00;;;;;;5049539;28;20502;-79
2021/07/04 04:18:23;;;;;;;4.63;2.10;;;18.80;94.00;;;;;;5032804;28;20206;-82
2021/07/04 04:20:49;;;;;;;6.43;2.35;;;18.80;94.10;;;;;;5033034;28;20029;-80
2021/07/04 04:23:14;;;;;;;7.05;2.08;;;18.70;94.10;;;;;;5050804;28;20417;-80
2021/07/04 04:25:40;;;;;;;4.43;2.30;;;18.70;94.10;;;;;;5032779;28;20029;-80
2021/07/04 04:28:08;;;;;;;2.85;2.10;;;18.70;94.20;;;;;;5049482;28;20055;-81
2021/07/04 04:30:35;;;;;;;2.83;1.95;;;18.60;94.30;;;;;;5016636;28;20040;-80
2021/07/04 04:33:01;;;;;;;2.95;1.55;;;18.60;94.40;;;;;;5050533;28;20021;-78
2021/07/04 04:35:26;;;;;;;4.53;1.73;;;18.50;94.40;;;;;;5051062;28;20039;-80
2021/07/04 04:37:52;;;;;;;3.15;1.88;;;18.50;94.50;;;;;;5050399;28;20029;-82
2021/07/04 04:40:18;;;;;;;3.00;1.63;;;18.50;94.60;;;;;;5049104;28;20383;-82
2021/07/04 04:42:44;;;;;;;2.85;1.95;;;18.40;94.60;;;;;;5049033;28;20029;-79
2021/07/04 04:45:10;;;;;;;3.60;1.90;;;18.40;94.70;;;;;;5050192;28;20090;-78
2021/07/04 04:47:36;;;;;;;4.53;2.22;;;18.40;94.70;;;;;;5049746;28;20047;-80
2021/07/04 04:50:05;;;;;;;4.25;1.80;;;18.40;94.80;;;;;;5032592;28;20033;-80
2021/07/04 04:52:30;;;;;;;4.78;2.35;;;18.40;94.80;;;;;;5050228;28;20113;-80
2021/07/04 04:54:56;;;;;;;4.60;1.83;;;18.40;94.80;;;;;;5048646;28;20123;-81
2021/07/04 04:57:22;;;;;;;5.03;2.20;;;18.40;94.90;;;;;;5050156;28;20431;-81
2021/07/04 04:59:48;;;;;;;3.78;1.95;;;18.40;94.90;;;;;;5050076;28;20468;-81
2021/07/04 05:02:13;;;;;;;5.93;2.20;;;18.30;95.00;;;;;;5048833;28;20040;-80
2021/07/04 05:04:39;;;;;;;6.13;2.28;;;18.30;95.00;;;;;;5015792;28;20032;-81
2021/07/04 05:07:06;;;;;;;4.25;1.88;;;18.30;95.00;;;;;;5032061;28;20025;-78
2021/07/04 05:09:32;;;;;;;4.80;2.00;;;18.30;95.10;;;;;;5049012;28;20116;-79
2021/07/04 05:11:58;;;;;;;5.28;3.17;;;18.30;95.20;;;;;;5032296;28;20549;-81
2021/07/04 05:14:24;;;;;;;5.60;2.42;;;18.40;95.20;;;;;;5049900;28;20032;-78
2021/07/04 05:16:50;;;;;;;4.93;2.70;;;18.30;95.30;;;;;;5031992;28;20036;-78
2021/07/04 05:19:15;;;;;;;4.70;2.35;;;18.40;95.40;;;;;;5050024;28;20035;-79
2021/07/04 05:21:41;;;;;;;4.25;2.20;;;18.30;95.60;;;;;;5015768;28;20037;-81
2021/07/04 05:24:10;;;;;;;4.55;2.70;;;18.30;95.70;;;;;;5048576;28;20482;-81
2021/07/04 05:26:36;;;;;;;8.07;3.63;;;18.30;95.80;;;;;;5048389;28;20444;-80
2021/07/04 05:29:02;;;;;;;7.18;3.42;;;18.40;95.90;;;;;;5031920;28;20065;-78
2021/07/04 05:31:28;;;;;;;8.93;4.00;;;18.40;95.90;;;;;;5049675;28;20029;-78
2021/07/04 05:33:54;;;;;;;6.53;3.47;;;18.40;95.90;;;;;;5049855;28;20036;-79
2021/07/04 05:36:20;;;;;;;7.80;4.07;;;18.40;96.00;;;;;;5049418;28;20029;-80
2021/07/04 05:38:46;;;;;;;9.82;4.32;;;18.30;96.10;;;;;;5048038;28;20071;-81
2021/07/04 05:41:13;;;;;;;8.40;4.63;;;18.30;96.20;;;;;;5048110;28;20029;-79
2021/07/04 05:43:41;;;;;;;12.88;5.05;;;18.40;96.20;;;;;;5031445;28;20029;-78
2021/07/04 05:46:07;;;;;;;12.00;4.55;;;18.30;96.30;;;;;;5049812;28;20434;-80
2021/07/04 05:48:35;;;;;;;8.27;4.70;;;18.40;96.30;;;;;;5049567;28;20029;-80
2021/07/04 05:51:01;;;;;;;9.98;5.28;;;18.50;96.20;;;;;;5048406;28;20304;-80
2021/07/04 05:53:27;;;;;;;7.20;4.80;;;18.50;96.10;;;;;;5048128;28;20075;-81
2021/07/04 05:55:53;;;;;;;9.38;4.95;;;18.50;96.10;;;;;;5049204;28;20031;-81
2021/07/04 05:58:20;;;;;;;7.50;4.63;;;18.50;96.10;;;;;;5030502;28;20419;-79
2021/07/04 06:00:46;;;;;;;13.18;4.95;;;18.50;96.00;;;;;;5048026;28;20529;-78
2021/07/04 06:03:11;;;;;;;9.02;5.22;;;18.50;96.00;;;;;;5049475;28;20025;-79
2021/07/04 06:05:38;;;;;;;9.02;5.03;;;18.60;96.00;;;;;;5049119;28;20029;-82
2021/07/04 06:08:04;;;;;;;13.18;5.45;;;18.60;96.00;;;;;;5047801;28;20031;-80
2021/07/04 06:10:30;;;;;;;11.00;5.40;;;18.70;96.00;;;;;;5047818;28;20025;-79
2021/07/04 06:12:55;;;;;;;10.77;5.22;;;18.70;95.90;;;;;;5048811;28;20036;-80
2021/07/04 06:15:21;;;;;;;12.32;5.40;;;18.80;95.80;;;;;;5030793;28;20079;-81
2021/07/04 06:17:47;;;;;;;8.20;5.35;;;18.90;95.60;;;;;;5048249;28;20061;-80
2021/07/04 06:20:14;;;;;;;8.68;4.85;;;19.00;95.50;;;;;;5047166;28;20033;-80
2021/07/04 06:22:41;;;;;;;9.25;5.25;;;19.10;95.40;;;;;;5048602;28;20040;-79
2021/07/04 06:25:08;;;;;;;12.95;6.55;;;19.10;95.40;;;;;;5046871;28;20105;-79
2021/07/04 06:27:35;;;;;;;12.43;4.93;;;19.30;95.20;;;;;;5048643;28;20149;-82
2021/07/04 06:30:01;;;;;;;12.00;4.35;;;19.40;95.00;;;;;;5047389;28;20446;-79
2021/07/04 06:32:27;;;;;;;9.98;5.20;;;19.60;94.70;;;;;;5046999;28;20039;-78
2021/07/04 06:34:53;;;;;;;11.55;5.40;;;19.80;94.30;;;;;;5047164;28;20476;-80
2021/07/04 06:37:18;;;;;;;9.63;5.35;;;19.90;94.10;;;;;;5048172;28;20049;-79
2021/07/04 06:39:44;;;;;;;10.50;4.90;;;20.30;93.90;;;;;;5046964;28;20025;-79
2021/07/04 06:42:10;;;;;;;12.13;5.28;;;20.70;93.10;;;;;;5030389;28;20025;-79
2021/07/04 06:44:37;;;;;;;9.45;5.05;;;21.20;93.00;;;;;;5046744;28;20116;-84
2021/07/04 06:47:04;;;;;;;8.27;4.88;;;22.00;91.80;;;;;;5046778;28;20021;-78
2021/07/04 06:49:30;;;;;;;9.95;5.38;;;22.20;90.50;;;;;;5048229;28;20037;-83
2021/07/04 06:51:56;;;;;;;10.07;4.88;;;22.20;90.00;;;;;;5048213;28;20053;-79
2021/07/04 06:54:21;;;;;;;9.57;4.57;;;22.10;89.60;;;;;;5046688;28;20067;-79
2021/07/04 06:56:47;;;;;;;12.55;5.03;;;22.00;89.50;;;;;;5013637;28;20025;-78
2021/07/04 06:59:13;;;;;;;14.77;5.63;;;22.10;89.50;;;;;;5046485;28;20503;-80
2021/07/04 07:01:39;;;;;;;10.20;4.82;;;22.40;88.70;;;;;;5029955;28;20046;-78
2021/07/04 07:04:04;;;;;;;8.40;4.55;;;22.90;88.10;;;;;;5046416;28;20021;-79
2021/07/04 07:06:30;;;;;;;8.60;4.20;;;23.20;86.20;;;;;;5047610;28;20025;-80
2021/07/04 07:08:56;;;;;;;7.88;4.63;;;23.40;85.50;;;;;;5029706;28;20082;-81
2021/07/04 07:11:22;;;;;;;6.13;4.43;;;23.80;85.10;;;;;;5029713;28;20570;-80
2021/07/04 07:13:48;;;;;;;7.38;4.28;;;23.90;82.80;;;;;;5046621;28;20041;-79
2021/07/04 07:16:13;;;;;;;14.35;5.05;;;23.70;81.50;;;;;;5029709;28;20029;-80
2021/07/04 07:18:39;;;;;;;13.55;5.10;;;23.50;81.50;;;;;;5029369;28;20515;-81
2021/07/04 07:21:06;;;;;;;11.88;4.85;;;23.40;81.50;;;;;;5026208;28;20057;-81
2021/07/04 07:23:32;;;;;;;11.88;5.32;;;23.30;81.50;;;;;;5026069;28;20032;-82
2021/07/04 07:25:58;;;;;;;14.45;5.22;;;23.20;81.70;;;;;;5026031;28;20542;-78
2021/07/04 07:28:24;;;;;;;14.88;4.85;;;23.20;81.60;;;;;;5026247;28;20084;-80
2021/07/04 07:30:49;;;;;;;7.88;3.95;;;23.20;81.20;;;;;;5026136;28;20369;-78
2021/07/04 07:33:16;;;;;;;10.05;5.53;;;23.20;81.20;;;;;;5025875;28;20033;-79
2021/07/04 07:35:42;;;;;;;13.35;4.95;;;23.30;81.30;;;;;;5025930;28;20060;-79
2021/07/04 07:38:10;;;;;;;12.07;4.90;;;23.60;81.10;;;;;;5042383;28;20068;-83
2021/07/04 07:40:37;;;;;;;13.95;4.75;;;23.80;79.90;;;;;;5027168;28;20468;-79
2021/07/04 07:43:06;;;;;;;11.88;4.53;;;24.00;79.30;;;;;;5027143;28;20030;-80
2021/07/04 07:45:32;;;;;;;10.63;3.92;;;24.10;78.60;;;;;;5025866;28;20026;-81
2021/07/04 07:47:58;;;;;;;10.45;3.85;;;24.10;78.80;;;;;;5025901;28;20045;-80
2021/07/04 07:50:24;;;;;;;8.18;3.95;;;24.20;77.90;;;;;;5027521;28;20357;-80
2021/07/04 07:52:49;;;;;;;14.85;4.22;;;24.50;77.40;;;;;;5027194;28;20029;-81
2021/07/04 07:55:15;;;;;;;6.32;3.10;;;24.60;76.90;;;;;;5042412;28;20202;-78
2021/07/04 07:57:41;;;;;;;8.55;2.97;;;24.80;76.70;;;;;;5025640;28;20038;-79
2021/07/04 08:00:10;;;;;;;11.63;3.35;;;25.10;76.30;;;;;;5042146;28;20033;-81
2021/07/04 08:02:37;;;;;;;7.63;3.35;;;25.50;75.80;;;;;;5042086;28;20017;-79
2021/07/04 08:05:03;;;;;;;9.32;3.22;;;25.80;73.50;;;;;;5026864;28;20116;-80
2021/07/04 08:07:29;;;;;;;8.00;3.88;;;26.00;72.90;;;;;;5025567;28;20048;-82
2021/07/04 08:09:55;;;;;;;5.63;2.40;;;26.50;72.30;;;;;;5026891;28;20052;-79
2021/07/04 08:12:20;;;;;;;6.10;2.53;;;27.20;71.30;;;;;;5026874;28;20059;-81
2021/07/04 08:14:46;;;;;;;4.88;2.25;;;28.30;69.90;;;;;;5041911;28;20040;-79
2021/07/04 08:17:12;;;;;;;6.15;2.75;;;29.10;67.10;;;;;;5025150;28;20108;-78
2021/07/04 08:19:37;;;;;;;3.97;2.20;;;29.20;64.90;;;;;;5026936;28;20049;-80
2021/07/04 08:22:04;;;;;;;4.32;1.90;;;29.40;64.80;;;;;;5027865;28;20029;-78
2021/07/04 08:24:30;;;;;;;3.90;1.60;;;30.00;63.50;;;;;;5045751;28;20026;-81
2021/07/04 08:26:55;;;;;;;3.60;1.95;;;31.10;63.20;;;;;;5028879;28;20029;-79
2021/07/04 08:29:22;;;;;;;11.23;1.98;;;32.20;60.80;;;;;;5029114;28;20098;-79
2021/07/04 08:31:47;;;;;;;4.63;1.90;;;33.10;58.20;;;;;;5030715;28;20383;-81
2021/07/04 08:34:13;;;;;;;4.15;2.00;;;33.50;56.10;;;;;;5030145;28;20368;-81
2021/07/04 08:36:39;;;;;;;4.22;1.80;;;33.50;54.50;;;;;;5028721;28;20030;-80
2021/07/04 08:39:06;;;;;;;4.65;1.48;;;32.90;53.30;;;;;;5028820;28;20029;-82
2021/07/04 08:41:32;;;;;;;3.13;1.58;;;32.60;53.70;;;;;;5028835;28;20078;-81
2021/07/04 08:44:05;;;;;;;3.35;1.85;;;32.20;53.30;;;;;;5030061;28;20112;-80
2021/07/04 08:46:31;;;;;;;4.20;1.75;;;31.70;54.00;;;;;;5030110;28;20033;-80
2021/07/04 08:48:57;;;;;;;3.90;1.80;;;31.80;54.40;;;;;;5030108;28;20029;-80
2021/07/04 08:51:23;;;;;;;3.70;1.80;;;31.40;53.40;;;;;;5028746;28;20030;-81
2021/07/04 08:53:49;;;;;;;3.47;1.65;;;31.30;54.00;;;;;;5045089;28;20036;-78
2021/07/04 08:56:15;;;;;;;2.65;1.42;;;31.70;54.60;;;;;;5029812;28;20029;-80
2021/07/04 08:58:41;;;;;;;5.65;1.98;;;32.90;54.90;;;;;;5029690;28;20029;-80
2021/07/04 09:01:18;;;;;;;5.70;2.20;;;33.90;53.40;;;;;;5028340;28;20472;-80
2021/07/04 09:04:05;;;;;;;7.97;1.92;;;33.40;51.00;;;;;;5029635;28;20026;-80
2021/07/04 09:06:45;;;;;;;8.02;5.57;;;32.40;50.80;;;;;;5029435;28;20036;-80
2021/07/04 09:09:24;;;;;;;4.95;1.63;;;30.90;51.80;;;;;;5044801;28;20402;-81
2021/07/04 09:12:05;;;;;;;7.10;2.42;;;30.00;52.70;;;;;;5029854;28;20025;-79
2021/07/04 09:14:42;;;;;;;4.80;2.03;;;29.10;54.10;;;;;;5029470;28;20041;-80
2021/07/04 09:17:10;;;;;;;4.80;1.77;;;28.50;54.80;;;;;;5044479;28;20377;-80
2021/07/04 09:19:51;;;;;;;3.08;1.38;;;28.10;55.30;;;;;;5027651;28;20526;-79
2021/07/04 09:22:16;;;;;;;2.75;1.48;;;28.00;55.50;;;;;;5044472;28;20026;-78
2021/07/04 09:24:43;;;;;;;4.45;1.60;;;28.00;55.50;;;;;;5044420;28;20423;-78
2021/07/04 09:27:14;;;;;;;3.47;1.17;;;27.80;55.70;;;;;;5027965;28;20396;-78
2021/07/04 09:29:43;;;;;;;3.65;1.58;;;27.60;55.80;;;;;;5044411;28;20029;-79
2021/07/04 09:32:10;;;;;;;3.45;1.70;;;27.80;56.70;;;;;;5044467;28;20032;-78
2021/07/04 09:34:36;;;;;;;6.30;1.92;;;28.60;56.70;;;;;;5028100;28;20033;-79
2021/07/04 09:37:02;;;;;;;3.15;1.73;;;30.10;56.60;;;;;;5027782;28;20048;-79
2021/07/04 09:39:30;;;;;;;4.75;1.60;;;31.90;55.00;;;;;;5027681;28;20036;-79
2021/07/04 09:42:06;;;;;;;3.15;1.38;;;33.40;53.80;;;;;;5029011;28;20018;-79
2021/07/04 09:44:32;;;;;;;4.25;1.90;;;34.90;51.40;;;;;;5028975;28;20021;-79
2021/07/04 09:47:16;;;;;;;2.92;1.42;;;35.10;50.10;;;;;;5028849;28;20387;-79
2021/07/04 09:49:42;;;;;;;4.28;1.60;;;35.00;48.80;;;;;;5028636;28;20049;-81
2021/07/04 09:52:26;;;;;;;3.00;1.20;;;35.10;48.80;;;;;;5027263;28;20384;-80
2021/07/04 09:55:02;;;;;;;4.40;1.55;;;34.90;47.70;;;;;;5028576;28;20041;-82
2021/07/04 09:57:44;;;;;;;8.98;4.85;;;34.80;48.10;;;;;;5028535;28;20361;-82
2021/07/04 10:00:16;;;;;;;6.82;1.67;;;35.30;47.60;;;;;;5026811;28;20025;-79
2021/07/04 10:02:42;;;;;;;5.30;1.60;;;35.10;47.20;;;;;;5028197;28;20104;-81
2021/07/04 10:05:16;;;;;;;3.72;1.60;;;35.50;47.20;;;;;;5028380;28;20104;-81
2021/07/04 10:07:42;;;;;;;2.53;1.20;;;35.50;46.20;;;;;;5043525;28;20068;-78
2021/07/04 10:10:10;;;;;;;3.80;1.48;;;35.00;45.70;;;;;;5026899;28;20057;-80
2021/07/04 10:12:36;;;;;;;5.18;1.73;;;34.00;45.80;;;;;;5043487;28;20392;-80
2021/07/04 10:15:03;;;;;;;3.75;1.42;;;33.50;47.00;;;;;;5026864;28;20037;-81
2021/07/04 10:17:29;;;;;;;2.28;1.20;;;33.60;46.90;;;;;;5028120;28;20570;-80
2021/07/04 10:19:55;;;;;;;4.38;1.70;;;33.20;46.40;;;;;;5028051;28;20030;-80
2021/07/04 10:22:23;;;;;;;4.00;1.67;;;32.30;46.60;;;;;;5043252;28;20038;-80
2021/07/04 10:24:50;;;;;;;6.05;3.17;;;31.50;47.10;;;;;;5026486;28;20419;-79
2021/07/04 10:27:16;;;;;;;4.30;2.13;;;30.70;48.00;;;;;;5027521;28;20025;-79
2021/07/04 10:29:43;;;;;;;6.82;2.40;;;30.10;48.60;;;;;;5042897;28;20026;-81
2021/07/04 10:32:13;;;;;;;6.32;3.25;;;29.80;49.10;;;;;;5043239;28;20396;-80
2021/07/04 10:34:43;;;;;;;;;;;29.70;49.70;;;;;;5028124;28;20032;-83
2021/07/04 10:37:09;;;;;;;3.20;1.85;;;30.10;50.60;;;;;;5043147;28;20321;-78
2021/07/04 10:39:35;;;;;;;3.40;2.05;;;30.60;50.20;;;;;;5028103;28;20388;-80
2021/07/04 10:42:06;;;;;;;7.35;2.30;;;31.00;50.00;;;;;;5027937;28;20104;-80
2021/07/04 10:44:47;;;;;;;7.65;1.90;;;31.60;49.40;;;;;;5027240;28;20032;-79
2021/07/04 10:47:20;;;;;;;5.00;1.77;;;32.40;48.60;;;;;;5027155;28;20013;-79
2021/07/04 10:49:52;;;;;;;7.10;1.60;;;32.60;48.00;;;;;;5027405;28;20088;-78
2021/07/04 10:52:22;;;;;;;4.05;1.90;;;32.70;47.60;;;;;;5026227;28;20446;-81
2021/07/04 10:54:51;;;;;;;5.10;1.67;;;32.70;47.90;;;;;;5042593;28;20029;-81
2021/07/04 10:57:22;;;;;;;5.00;1.65;;;33.00;47.80;;;;;;5027781;28;20036;-80
2021/07/04 10:59:49;;;;;;;7.18;4.20;;;32.80;47.20;;;;;;5042802;28;20401;-81
2021/07/04 11:02:54;;;;;;;6.25;2.20;;;32.20;47.10;;;;;;5027468;28;20018;-81
2021/07/04 11:05:31;;;;;;;19.02;2.90;;;31.40;47.50;;;;;;5011948;28;20083;-79
2021/07/04 11:07:57;;;;;;;4.75;1.42;;;30.80;48.00;;;;;;5042511;28;20142;-81
2021/07/04 11:10:25;;;;;;;8.85;2.20;;;30.40;48.40;;;;;;5042653;28;20502;-81
2021/07/04 11:12:53;;;;;;;6.22;2.72;;;30.10;48.70;;;;;;5043042;28;20025;-78
2021/07/04 11:15:21;;;;;;;6.63;2.80;;;29.90;49.10;;;;;;5042800;28;20029;-79
2021/07/04 11:17:59;;;;;;;4.47;2.40;;;29.80;49.50;;;;;;5042045;28;20183;-81
2021/07/04 11:20:29;;;;;;;3.97;1.67;;;30.20;49.90;;;;;;5027016;28;20029;-81
2021/07/04 11:23:19;;;;;;;4.30;1.70;;;30.70;49.70;;;;;;5026976;28;20484;-79
2021/07/04 11:25:48;;;;;;;3.70;1.85;;;31.10;49.00;;;;;;5042500;28;20025;-78
2021/07/04 11:28:17;;;;;;;4.35;1.80;;;31.20;48.90;;;;;;5041839;28;20026;-78
2021/07/04 11:30:44;;;;;;;9.23;3.70;;;31.20;48.50;;;;;;5026832;28;20030;-79
2021/07/04 11:33:24;;;;;;;7.00;2.17;;;31.10;48.50;;;;;;5025645;28;20436;-81
2021/07/04 11:35:50;;;;;;;13.82;1.80;;;30.80;48.60;;;;;;5041997;28;20037;-80
2021/07/04 11:38:21;;;;;;;9.65;2.22;;;30.60;48.20;;;;;;5026330;28;20040;-80
2021/07/04 11:40:48;;;;;;;3.88;1.50;;;30.20;48.60;;;;;;5026485;28;20076;-79
2021/07/04 11:43:21;;;;;;;4.70;1.85;;;30.00;49.10;;;;;;5025067;28;20380;-79
2021/07/04 11:45:59;;;;;;;3.40;1.80;;;30.10;49.50;;;;;;5026651;28;20056;-79
2021/07/04 11:49:04;;;;;;;4.53;2.33;;;30.40;49.60;;;;;;5026574;28;20048;-79
2021/07/04 11:51:45;;;;;;;7.90;3.13;;;30.80;49.40;;;;;;5041220;28;20029;-79
2021/07/04 11:54:16;;;;;;;6.35;1.75;;;31.50;49.30;;;;;;5041989;28;20646;-80
2021/07/04 11:56:44;;;;;;;3.60;1.63;;;32.00;48.80;;;;;;5045254;28;20064;-81
2021/07/04 11:59:16;;;;;;;3.40;1.48;;;32.20;48.20;;;;;;5030204;28;20087;-80
2021/07/04 12:01:52;;;;;;;3.88;1.20;;;32.20;47.50;;;;;;5045864;28;20551;-82
2021/07/04 12:04:28;;;;;;;2.97;1.60;;;32.00;47.30;;;;;;5030182;28;20425;-80
2021/07/04 12:07:05;;;;;;;6.28;1.50;;;31.90;47.60;;;;;;5030525;28;20059;-79
2021/07/04 12:09:48;;;;;;;4.78;1.45;;;32.10;47.50;;;;;;5030777;28;20091;-78
2021/07/04 12:12:15;;;;;;;2.22;1.23;;;31.70;46.70;;;;;;5028972;28;20029;-82
2021/07/04 12:14:41;;;;;;;3.45;1.48;;;31.20;46.90;;;;;;5045934;28;20067;-82
2021/07/04 12:17:35;;;;;;;3.22;1.50;;;30.90;47.50;;;;;;5045078;28;20491;-79
2021/07/04 12:20:01;;;;;;;3.08;1.45;;;30.60;47.40;;;;;;5007052;28;20045;-81
2021/07/04 12:22:33;;;;;;;4.50;2.47;;;30.30;47.50;;;;;;5031188;28;20033;-79
2021/07/04 12:25:01;;;;;;;5.90;1.48;;;30.10;47.80;;;;;;5031152;28;20535;-81
2021/07/04 12:27:51;;;;;;;2.85;1.10;;;30.10;47.80;;;;;;5045162;28;20438;-79
2021/07/04 12:30:19;;;;;;;3.38;1.08;;;30.10;47.00;;;;;;5030132;28;20022;-76
2021/07/04 12:32:50;;;;;;;2.25;0.95;;;30.00;46.90;;;;;;5046174;28;20053;-79
2021/07/04 12:35:42;;;;;;;3.47;1.20;;;29.80;47.30;;;;;;5030132;28;20104;-81
2021/07/04 12:38:15;;;;;;;3.47;1.20;;;30.00;47.50;;;;;;5028822;28;20040;-80
2021/07/04 12:40:54;;;;;;;2.65;1.10;;;30.20;47.30;;;;;;5030154;28;20500;-79
2021/07/04 12:43:42;;;;;;;2.97;0.93;;;30.40;47.40;;;;;;5045183;28;20030;-78
2021/07/04 12:46:17;;;;;;;3.42;1.20;;;30.70;47.60;;;;;;5028322;28;20021;-81
2021/07/04 12:48:45;;;;;;;5.45;1.40;;;31.20;47.60;;;;;;5045002;28;20484;-79
2021/07/04 12:51:11;;;;;;;4.72;1.45;;;31.40;47.30;;;;;;5044705;28;20120;-80